Time;durP1;ratioP1;P1;durP2;ratioP2;P2;SDS_P1;SDS_P2;PMS_P1;PMS_P2;Temp;Humidity;BMP_temperature;BMP_pressure;BME280_temperature;BME280_humidity;BME280_pressure;Samples;Min_cycle;Max_cycle;Signal;HPM_P1;HPM_P2
2020/12/14 00:02:11;;;;;;;6.15;0.10;;;13.60;93.80;;;;;;5029393;28;20034;-75
2020/12/14 00:04:38;;;;;;;7.13;0.10;;;13.50;93.80;;;;;;5030066;28;20037;-74
2020/12/14 00:07:04;;;;;;;4.25;0.20;;;13.70;93.80;;;;;;5014643;28;20034;-75
2020/12/14 00:09:31;;;;;;;4.40;0.20;;;13.60;93.80;;;;;;5013708;28;20068;-75
2020/12/14 00:12:01;;;;;;;5.60;0.30;;;14.00;93.90;;;;;;5012692;28;20029;-75
2020/12/14 00:14:28;;;;;;;5.03;0.17;;;13.40;93.70;;;;;;5014585;28;20034;-75
2020/12/14 00:16:54;;;;;;;3.80;0.20;;;13.50;93.80;;;;;;5014579;28;20066;-74
2020/12/14 00:19:20;;;;;;;2.63;0.15;;;13.70;93.70;;;;;;5013316;28;20132;-75
2020/12/14 00:21:46;;;;;;;4.28;0.20;;;13.60;93.60;;;;;;5013889;28;20104;-74
2020/12/14 00:24:12;;;;;;;6.28;0.20;;;13.40;93.60;;;;;;5013984;28;20129;-74
2020/12/14 00:26:38;;;;;;;5.97;0.20;;;13.50;93.70;;;;;;5013960;28;20034;-75
2020/12/14 00:29:03;;;;;;;7.82;0.20;;;13.90;93.80;;;;;;5014084;28;20034;-74
2020/12/14 00:31:29;;;;;;;4.07;0.10;;;13.40;93.60;;;;;;5012626;28;20034;-75
2020/12/14 00:33:55;;;;;;;7.07;0.25;;;13.40;93.60;;;;;;5013881;28;20042;-75
2020/12/14 00:36:21;;;;;;;7.57;0.17;;;13.50;93.60;;;;;;5014209;28;20041;-75
2020/12/14 00:38:47;;;;;;;7.55;0.20;;;13.70;93.70;;;;;;5013848;28;20096;-74
2020/12/14 00:41:20;;;;;;;6.07;0.30;;;13.30;93.60;;;;;;5013959;28;20036;-75
2020/12/14 00:43:47;;;;;;;3.47;0.10;;;13.40;93.60;;;;;;5014068;28;20107;-75
2020/12/14 00:46:14;;;;;;;4.85;0.30;;;13.40;93.50;;;;;;5013892;28;20069;-74
2020/12/14 00:48:41;;;;;;;6.80;0.20;;;13.10;93.50;;;;;;5012393;28;20057;-74
2020/12/14 00:51:07;;;;;;;5.63;0.20;;;13.20;93.60;;;;;;5014403;28;20096;-75
2020/12/14 00:53:34;;;;;;;4.35;0.10;;;13.40;93.60;;;;;;5014232;28;20040;-75
2020/12/14 00:56:03;;;;;;;5.10;0.40;;;13.30;93.60;;;;;;5013930;28;20022;-75
2020/12/14 00:58:29;;;;;;;7.60;0.20;;;13.10;93.50;;;;;;5029092;28;20370;-75
2020/12/14 01:00:56;;;;;;;5.38;0.30;;;13.30;93.50;;;;;;5013903;28;20034;-75
2020/12/14 01:03:23;;;;;;;7.13;0.25;;;13.20;93.40;;;;;;5014217;28;20038;-75
2020/12/14 01:05:50;;;;;;;8.52;0.20;;;13.40;93.40;;;;;;5014148;28;20034;-75
2020/12/14 01:08:17;;;;;;;5.32;0.28;;;13.20;93.30;;;;;;5013875;28;20041;-75
2020/12/14 01:10:44;;;;;;;11.02;0.20;;;13.10;93.30;;;;;;5013917;28;20096;-75
2020/12/14 01:13:10;;;;;;;9.98;0.35;;;13.00;93.20;;;;;;5015217;28;20030;-75
2020/12/14 01:15:36;;;;;;;6.40;0.40;;;13.20;93.30;;;;;;5033201;28;20068;-74
2020/12/14 01:18:02;;;;;;;8.48;0.28;;;13.00;93.10;;;;;;5017717;28;20069;-75
2020/12/14 01:20:28;;;;;;;12.23;0.47;;;12.70;93.00;;;;;;5017929;28;20496;-75
2020/12/14 01:22:53;;;;;;;10.75;0.38;;;12.80;93.10;;;;;;5017963;28;20041;-75
2020/12/14 01:25:19;;;;;;;5.43;0.30;;;12.80;93.10;;;;;;5017481;28;20481;-74
2020/12/14 01:27:45;;;;;;;11.68;0.50;;;12.50;92.90;;;;;;5032687;28;20041;-75
2020/12/14 01:30:11;;;;;;;9.73;0.47;;;12.70;92.90;;;;;;5016383;28;20061;-75
2020/12/14 01:32:36;;;;;;;11.95;0.50;;;12.60;92.90;;;;;;5017415;28;20038;-75
2020/12/14 01:35:03;;;;;;;9.20;0.63;;;12.50;93.00;;;;;;5032856;28;20508;-75
2020/12/14 01:37:29;;;;;;;12.45;0.40;;;12.60;92.90;;;;;;5016940;28;20045;-75
2020/12/14 01:39:54;;;;;;;11.82;0.60;;;12.50;93.10;;;;;;5032676;28;20038;-75
2020/12/14 01:42:22;;;;;;;10.60;0.50;;;12.70;93.00;;;;;;5016975;28;20056;-75
2020/12/14 01:44:51;;;;;;;11.82;0.52;;;12.40;93.00;;;;;;5016381;28;20037;-75
2020/12/14 01:47:33;;;;;;;13.43;0.63;;;12.60;93.10;;;;;;5017541;28;20133;-74
2020/12/14 01:50:00;;;;;;;12.93;0.52;;;12.20;92.70;;;;;;5032584;28;20062;-75
2020/12/14 01:52:26;;;;;;;12.45;0.68;;;12.30;92.90;;;;;;5017486;28;20117;-75
2020/12/14 01:54:53;;;;;;;11.60;0.70;;;12.00;92.90;;;;;;5016145;28;20061;-75
2020/12/14 01:57:20;;;;;;;14.95;0.68;;;12.30;93.00;;;;;;5016870;28;20045;-75
2020/12/14 01:59:46;;;;;;;23.00;0.85;;;12.60;93.10;;;;;;5017363;28;20057;-75
2020/12/14 02:02:13;;;;;;;17.52;0.93;;;12.40;93.10;;;;;;5032454;28;20036;-75
2020/12/14 02:04:39;;;;;;;13.70;0.90;;;12.20;93.10;;;;;;5017207;28;20029;-75
2020/12/14 02:07:05;;;;;;;16.80;1.08;;;12.20;93.20;;;;;;5016890;28;20041;-75
2020/12/14 02:09:31;;;;;;;21.52;0.88;;;12.20;93.20;;;;;;5032468;28;20425;-75
2020/12/14 02:11:57;;;;;;;15.32;0.90;;;12.10;93.10;;;;;;5016568;28;20030;-75
2020/12/14 02:14:23;;;;;;;21.42;1.25;;;11.80;93.20;;;;;;5015727;28;20128;-75
2020/12/14 02:16:49;;;;;;;16.27;1.00;;;12.20;93.30;;;;;;5031813;28;20132;-75
2020/12/14 02:19:14;;;;;;;16.02;1.08;;;11.90;93.20;;;;;;5015756;28;20042;-75
2020/12/14 02:21:40;;;;;;;22.52;1.33;;;12.20;93.40;;;;;;5016715;28;20029;-75
2020/12/14 02:24:18;;;;;;;27.38;1.92;;;11.80;93.30;;;;;;5016532;28;20046;-74
2020/12/14 02:26:50;;;;;;;17.30;1.10;;;11.80;93.50;;;;;;5016938;28;20029;-74
2020/12/14 02:29:17;;;;;;;15.93;1.10;;;12.00;93.30;;;;;;5031814;28;20041;-74
2020/12/14 02:31:44;;;;;;;20.65;1.38;;;11.90;93.40;;;;;;5016486;28;20362;-74
2020/12/14 02:34:10;;;;;;;20.85;1.40;;;12.00;93.30;;;;;;5016354;28;20599;-75
2020/12/14 02:36:36;;;;;;;24.13;1.65;;;12.10;93.40;;;;;;5016649;28;20139;-74
2020/12/14 02:39:04;;;;;;;23.63;1.48;;;12.20;93.40;;;;;;5016215;28;20509;-75
2020/12/14 02:41:30;;;;;;;28.67;2.00;;;11.90;93.40;;;;;;5016299;28;20095;-75
2020/12/14 02:43:55;;;;;;;24.52;1.50;;;12.40;93.70;;;;;;5016291;28;20030;-75
2020/12/14 02:46:21;;;;;;;18.88;1.48;;;12.30;93.80;;;;;;5016051;28;20044;-75
2020/12/14 02:48:47;;;;;;;28.65;1.90;;;12.20;93.60;;;;;;5015901;28;20516;-75
2020/12/14 02:51:18;;;;;;;24.63;1.85;;;12.40;93.70;;;;;;5016094;28;20034;-75
2020/12/14 02:53:44;;;;;;;21.67;2.03;;;12.30;93.70;;;;;;5016246;28;20049;-75
2020/12/14 02:56:10;;;;;;;24.17;1.67;;;12.70;93.80;;;;;;5015322;28;20682;-75
2020/12/14 02:58:36;;;;;;;39.22;1.90;;;12.20;93.50;;;;;;5015433;28;20121;-75
2020/12/14 03:01:02;;;;;;;24.15;1.95;;;12.50;93.70;;;;;;5015858;28;20153;-75
2020/12/14 03:03:28;;;;;;;29.40;1.98;;;12.40;93.50;;;;;;5030928;28;20042;-75
2020/12/14 03:05:53;;;;;;;24.05;1.92;;;12.40;93.50;;;;;;5014471;28;20120;-75
2020/12/14 03:08:19;;;;;;;32.58;1.95;;;12.50;93.50;;;;;;5015572;28;20038;-75
2020/12/14 03:10:45;;;;;;;30.88;2.10;;;12.30;93.30;;;;;;5015521;28;20045;-76
2020/12/14 03:13:11;;;;;;;25.25;1.88;;;12.30;93.30;;;;;;5014275;28;20033;-75
2020/12/14 03:15:39;;;;;;;29.75;2.63;;;12.60;93.60;;;;;;5013937;28;20037;-75
2020/12/14 03:18:06;;;;;;;27.73;2.03;;;12.50;93.60;;;;;;5030361;28;20168;-75
2020/12/14 03:20:33;;;;;;;33.45;2.60;;;12.80;93.70;;;;;;5015232;28;20037;-75
2020/12/14 03:22:59;;;;;;;29.13;2.70;;;12.60;93.80;;;;;;5014031;28;20038;-75
2020/12/14 03:25:25;;;;;;;31.67;2.67;;;13.20;94.20;;;;;;5015363;28;20021;-75
2020/12/14 03:27:51;;;;;;;35.28;2.45;;;12.90;93.90;;;;;;5015011;28;20042;-75
2020/12/14 03:30:17;;;;;;;35.25;2.70;;;12.70;93.80;;;;;;5015017;28;20533;-75
2020/12/14 03:32:43;;;;;;;28.20;2.50;;;13.10;93.90;;;;;;5015067;28;20064;-75
2020/12/14 03:35:09;;;;;;;27.17;2.10;;;12.90;93.80;;;;;;5014804;28;20477;-75
2020/12/14 03:37:35;;;;;;;34.55;2.45;;;13.00;93.80;;;;;;5015007;28;20048;-75
2020/12/14 03:40:00;;;;;;;27.95;2.55;;;13.20;93.80;;;;;;5015286;28;20064;-75
2020/12/14 03:42:29;;;;;;;31.98;2.65;;;13.20;93.70;;;;;;5015078;28;20507;-75
2020/12/14 03:44:55;;;;;;;34.50;2.60;;;13.00;93.60;;;;;;5014944;28;20030;-75
2020/12/14 03:47:21;;;;;;;36.45;2.60;;;13.20;93.60;;;;;;5013999;28;20129;-75
2020/12/14 03:49:47;;;;;;;28.38;2.05;;;13.10;93.60;;;;;;5014681;28;20583;-76
2020/12/14 03:52:13;;;;;;;26.52;2.38;;;13.00;93.60;;;;;;5015326;28;20030;-75
2020/12/14 03:54:39;;;;;;;31.08;2.33;;;13.00;93.60;;;;;;5015411;28;20473;-75
2020/12/14 03:57:05;;;;;;;23.95;2.08;;;13.10;93.60;;;;;;5014871;28;20065;-75
2020/12/14 03:59:30;;;;;;;31.30;2.45;;;12.90;93.50;;;;;;5013760;28;20041;-76
2020/12/14 04:01:56;;;;;;;28.13;2.15;;;13.00;93.70;;;;;;5029896;28;20494;-75
2020/12/14 04:04:23;;;;;;;21.27;1.70;;;13.10;94.00;;;;;;5015067;28;20030;-75
2020/12/14 04:06:48;;;;;;;19.33;1.80;;;13.20;93.90;;;;;;5014615;28;20069;-75
2020/12/14 04:09:14;;;;;;;17.77;1.63;;;13.30;93.90;;;;;;5013825;28;20161;-75
2020/12/14 04:11:40;;;;;;;15.77;1.25;;;13.40;93.70;;;;;;5014802;28;20040;-76
2020/12/14 04:14:06;;;;;;;17.45;1.08;;;13.40;93.60;;;;;;5014929;28;20351;-75
2020/12/14 04:16:32;;;;;;;14.35;0.98;;;13.50;93.50;;;;;;5014792;28;20080;-75
2020/12/14 04:18:57;;;;;;;16.55;1.02;;;13.20;93.10;;;;;;5029947;28;20034;-75
2020/12/14 04:21:23;;;;;;;14.10;0.95;;;13.10;92.80;;;;;;5014659;28;20038;-75
2020/12/14 04:23:49;;;;;;;13.32;1.10;;;12.70;92.60;;;;;;5014746;28;20363;-75
2020/12/14 04:26:15;;;;;;;14.90;0.85;;;12.80;92.60;;;;;;5014845;28;20069;-75
2020/12/14 04:28:41;;;;;;;14.90;0.85;;;12.70;92.70;;;;;;5014143;28;20041;-76
2020/12/14 04:31:07;;;;;;;14.85;0.95;;;12.60;92.70;;;;;;5014373;28;20045;-76
2020/12/14 04:33:32;;;;;;;17.42;0.98;;;12.70;92.50;;;;;;5014519;28;20042;-76
2020/12/14 04:35:58;;;;;;;15.98;1.00;;;12.70;92.50;;;;;;5014288;28;20038;-76
2020/12/14 04:38:24;;;;;;;17.77;1.20;;;12.50;92.30;;;;;;5029904;28;20334;-75
2020/12/14 04:40:51;;;;;;;17.98;1.05;;;12.40;92.40;;;;;;5014331;28;20038;-76
2020/12/14 04:43:17;;;;;;;21.33;1.40;;;12.30;92.40;;;;;;5014301;28;20037;-76
2020/12/14 04:45:45;;;;;;;31.83;2.30;;;12.10;92.40;;;;;;5014431;28;20034;-75
2020/12/14 04:48:13;;;;;;;19.00;1.75;;;12.30;92.80;;;;;;5015440;28;20037;-76
2020/12/14 04:50:40;;;;;;;23.60;2.20;;;12.00;92.80;;;;;;5018323;28;20033;-75
2020/12/14 04:53:06;;;;;;;32.35;1.80;;;12.20;93.00;;;;;;5033402;28;20034;-76
2020/12/14 04:55:38;;;;;;;33.78;2.55;;;12.30;93.00;;;;;;5017960;28;20095;-76
2020/12/14 04:58:05;;;;;;;33.03;2.72;;;12.30;92.90;;;;;;5017833;28;20069;-76
2020/12/14 05:00:32;;;;;;;30.83;2.53;;;12.40;93.00;;;;;;5016710;28;20041;-76
2020/12/14 05:02:58;;;;;;;43.10;2.85;;;12.10;92.90;;;;;;5033303;28;20038;-76
2020/12/14 05:05:27;;;;;;;44.15;3.55;;;12.30;93.00;;;;;;5032843;28;20038;-75
2020/12/14 05:07:54;;;;;;;40.72;3.40;;;12.30;93.10;;;;;;5016627;28;20033;-76
2020/12/14 05:10:27;;;;;;;31.10;3.30;;;12.10;93.00;;;;;;5018104;28;20501;-76
2020/12/14 05:12:53;;;;;;;40.13;3.63;;;12.20;93.20;;;;;;5017356;28;20041;-76
2020/12/14 05:15:23;;;;;;;38.65;3.35;;;12.20;93.20;;;;;;5016549;28;20033;-75
2020/12/14 05:17:51;;;;;;;46.03;4.13;;;12.20;93.00;;;;;;5017901;28;20088;-76
2020/12/14 05:20:19;;;;;;;41.58;3.97;;;12.20;93.40;;;;;;5017508;28;20068;-75
2020/12/14 05:22:58;;;;;;;42.83;3.92;;;12.20;93.50;;;;;;5018023;28;20034;-75
2020/12/14 05:25:24;;;;;;;39.53;3.85;;;12.30;93.60;;;;;;5017751;28;20157;-76
2020/12/14 05:28:00;;;;;;;47.22;3.38;;;12.20;93.40;;;;;;5016045;28;20033;-75
2020/12/14 05:30:36;;;;;;;48.55;3.80;;;12.20;93.70;;;;;;5017809;28;20066;-75
2020/12/14 05:33:03;;;;;;;49.22;4.63;;;12.20;93.40;;;;;;5017160;28;20061;-75
2020/12/14 05:35:34;;;;;;;43.78;4.03;;;12.30;93.60;;;;;;5016720;28;20116;-76
2020/12/14 05:38:18;;;;;;;53.88;4.43;;;12.40;93.90;;;;;;5016149;28;20060;-76
2020/12/14 05:40:50;;;;;;;50.83;4.28;;;12.30;93.90;;;;;;5017080;28;20053;-76
2020/12/14 05:43:18;;;;;;;47.53;4.60;;;12.60;94.00;;;;;;5015667;28;20358;-76
2020/12/14 05:45:45;;;;;;;50.38;4.15;;;12.80;94.00;;;;;;5016689;28;20033;-76
2020/12/14 05:48:33;;;;;;;51.80;5.20;;;12.80;94.00;;;;;;5015549;28;20038;-76
2020/12/14 05:51:06;;;;;;;47.63;5.60;;;12.70;93.70;;;;;;5017479;28;20060;-76
2020/12/14 05:53:53;;;;;;;55.95;6.03;;;12.70;93.70;;;;;;5015599;28;20040;-75
2020/12/14 05:56:19;;;;;;;50.38;4.40;;;12.50;93.60;;;;;;5017332;28;20041;-76
2020/12/14 05:58:51;;;;;;;48.90;4.28;;;12.50;93.80;;;;;;5017020;28;20034;-76
2020/12/14 06:01:17;;;;;;;50.85;4.55;;;12.60;93.90;;;;;;5017294;28;20038;-76
2020/12/14 06:03:45;;;;;;;55.75;4.85;;;12.80;93.70;;;;;;5008923;28;20069;-76
2020/12/14 06:06:13;;;;;;;53.55;4.90;;;12.50;93.60;;;;;;5010645;28;20196;-77
2020/12/14 06:08:53;;;;;;;57.28;4.88;;;13.00;93.70;;;;;;5015304;28;20040;-77
2020/12/14 06:11:26;;;;;;;55.03;5.68;;;13.00;93.60;;;;;;5025431;28;20036;-77
2020/12/14 06:14:02;;;;;;;55.50;6.13;;;12.80;93.60;;;;;;5000119;28;20092;-76
2020/12/14 06:16:35;;;;;;;58.53;5.28;;;12.70;93.70;;;;;;5016631;28;20497;-75
2020/12/14 06:19:01;;;;;;;54.17;4.63;;;12.70;93.50;;;;;;5031689;28;20568;-75
2020/12/14 06:21:32;;;;;;;52.83;5.40;;;12.60;93.70;;;;;;5016866;28;20034;-77
2020/12/14 06:24:00;;;;;;;52.95;5.40;;;12.60;93.90;;;;;;5016458;28;20034;-77
2020/12/14 06:26:27;;;;;;;58.00;5.22;;;12.90;93.90;;;;;;5031921;28;20091;-76
2020/12/14 06:28:54;;;;;;;62.90;5.47;;;12.90;94.00;;;;;;5016188;28;20033;-77
2020/12/14 06:31:35;;;;;;;55.75;5.00;;;12.80;94.10;;;;;;5031673;28;20034;-76
2020/12/14 06:34:03;;;;;;;58.78;4.80;;;12.70;94.00;;;;;;5031696;28;20034;-77
2020/12/14 06:36:37;;;;;;;57.60;5.78;;;12.80;93.80;;;;;;5016594;28;20044;-77
2020/12/14 06:39:03;;;;;;;65.18;6.38;;;12.50;93.60;;;;;;5030765;28;20050;-76
2020/12/14 06:41:31;;;;;;;67.13;6.15;;;12.50;93.70;;;;;;5030290;28;20030;-76
2020/12/14 06:44:09;;;;;;;51.42;6.30;;;12.50;93.70;;;;;;5015200;28;20104;-76
2020/12/14 06:46:36;;;;;;;56.25;6.60;;;12.70;93.90;;;;;;5030242;28;20474;-76
2020/12/14 06:49:02;;;;;;;52.05;5.68;;;12.60;93.50;;;;;;5029997;28;20152;-76
2020/12/14 06:51:50;;;;;;;59.50;6.38;;;12.80;93.60;;;;;;5029800;28;20041;-76
2020/12/14 06:54:46;;;;;;;59.20;5.80;;;12.40;93.50;;;;;;5030220;28;20033;-75
2020/12/14 06:57:19;;;;;;;53.95;5.68;;;12.50;93.80;;;;;;5017896;28;20042;-75
2020/12/14 06:59:54;;;;;;;70.80;6.63;;;12.40;93.40;;;;;;5031138;28;20038;-76
2020/12/14 07:02:33;;;;;;;;;;;12.30;93.40;;;;;;5016161;28;20041;-75
2020/12/14 07:04:59;;;;;;;55.80;5.65;;;12.30;93.40;;;;;;5015916;28;19916;-75
2020/12/14 07:07:28;;;;;;;63.47;6.55;;;12.50;93.50;;;;;;5015744;28;20042;-75
2020/12/14 07:10:08;;;;;;;53.60;8.20;;;12.40;93.20;;;;;;5015550;28;20123;-74
2020/12/14 07:12:41;;;;;;;71.93;13.95;;;12.30;93.40;;;;;;5012367;28;20038;-74
2020/12/14 07:15:07;;;;;;;142.85;55.75;;;12.20;93.40;;;;;;5015034;28;20041;-74
2020/12/14 07:17:32;;;;;;;96.65;29.30;;;12.00;93.20;;;;;;5015389;28;20038;-74
2020/12/14 07:19:59;;;;;;;77.93;15.38;;;12.20;93.30;;;;;;5015095;28;20497;-75
2020/12/14 07:22:30;;;;;;;61.50;6.13;;;12.10;93.10;;;;;;5014965;28;20038;-74
2020/12/14 07:25:00;;;;;;;71.22;6.28;;;12.30;93.50;;;;;;5030860;28;20040;-74
2020/12/14 07:27:27;;;;;;;58.80;9.43;;;12.20;93.70;;;;;;5014681;28;20041;-75
2020/12/14 07:30:03;;;;;;;57.60;8.77;;;12.70;93.70;;;;;;5014891;28;20542;-75
2020/12/14 07:32:29;;;;;;;60.20;14.63;;;12.40;93.40;;;;;;5015250;28;20523;-75
2020/12/14 07:34:55;;;;;;;59.35;7.75;;;12.30;93.40;;;;;;5014958;28;20033;-75
2020/12/14 07:37:22;;;;;;;61.13;7.05;;;12.30;93.50;;;;;;5014798;28;20041;-75
2020/12/14 07:39:48;;;;;;;61.90;5.47;;;12.20;93.60;;;;;;5029858;28;20037;-75
2020/12/14 07:42:30;;;;;;;63.65;6.93;;;12.40;93.70;;;;;;5014943;28;20083;-75
2020/12/14 07:45:10;;;;;;;51.80;5.47;;;12.80;94.00;;;;;;5030044;28;20057;-75
2020/12/14 07:47:37;;;;;;;54.65;5.32;;;12.90;94.00;;;;;;5014225;28;20117;-75
2020/12/14 07:50:07;;;;;;;60.08;4.60;;;12.80;93.80;;;;;;5029651;28;20064;-75
2020/12/14 07:52:36;;;;;;;67.53;5.63;;;12.80;93.70;;;;;;5014781;28;20030;-75
2020/12/14 07:55:04;;;;;;;58.25;5.82;;;12.80;93.70;;;;;;5030126;28;20042;-75
2020/12/14 07:57:32;;;;;;;53.38;5.18;;;12.70;93.70;;;;;;5014037;28;20054;-75
2020/12/14 07:59:59;;;;;;;52.55;4.75;;;12.90;93.70;;;;;;5014771;28;20041;-75
2020/12/14 08:02:28;;;;;;;57.22;4.65;;;13.10;93.70;;;;;;5014515;28;20519;-75
2020/12/14 08:05:05;;;;;;;56.13;4.90;;;12.90;93.60;;;;;;5029615;28;20408;-76
2020/12/14 08:07:52;;;;;;;66.25;5.50;;;13.10;93.70;;;;;;5025077;28;20041;-75
2020/12/14 08:10:32;;;;;;;66.50;6.03;;;13.20;93.60;;;;;;5011500;28;20509;-75
2020/12/14 08:13:17;;;;;;;61.72;5.97;;;13.20;93.70;;;;;;5003888;28;20121;-74
2020/12/14 08:15:44;;;;;;;45.65;5.78;;;13.10;93.50;;;;;;4995602;28;20193;-75
2020/12/14 08:18:13;;;;;;;65.82;5.68;;;12.90;93.70;;;;;;5029122;28;20046;-75
2020/12/14 08:20:41;;;;;;;47.33;4.80;;;13.30;93.80;;;;;;5013743;28;20092;-75
2020/12/14 08:23:20;;;;;;;54.53;5.10;;;13.30;93.70;;;;;;5014152;28;20052;-75
2020/12/14 08:25:47;;;;;;;47.45;5.43;;;13.00;93.70;;;;;;5029401;28;20129;-75
2020/12/14 08:28:13;;;;;;;63.72;5.57;;;13.10;93.70;;;;;;5012717;28;20161;-74
2020/12/14 08:30:40;;;;;;;56.53;5.80;;;13.10;93.70;;;;;;5014539;28;20033;-75
2020/12/14 08:33:19;;;;;;;60.28;5.05;;;13.40;93.70;;;;;;5014043;28;20110;-75
2020/12/14 08:35:50;;;;;;;48.28;4.90;;;12.90;93.50;;;;;;5029215;28;20596;-74
2020/12/14 08:38:20;;;;;;;46.30;4.40;;;13.20;93.70;;;;;;5013373;28;20046;-75
2020/12/14 08:40:56;;;;;;;58.03;5.25;;;13.40;93.60;;;;;;5013100;28;20034;-74
2020/12/14 08:43:23;;;;;;;57.15;4.78;;;13.20;93.30;;;;;;5012327;28;20041;-75
2020/12/14 08:46:04;;;;;;;41.88;3.92;;;13.10;93.10;;;;;;5013368;28;20033;-75
2020/12/14 08:48:33;;;;;;;47.38;4.07;;;13.10;93.00;;;;;;5012229;28;20532;-75
2020/12/14 08:51:31;;;;;;;49.80;4.18;;;12.70;93.10;;;;;;5013388;28;20121;-75
2020/12/14 08:54:20;;;;;;;44.45;4.97;;;13.00;93.30;;;;;;5005715;28;20042;-75
2020/12/14 08:56:46;;;;;;;55.38;5.25;;;13.00;93.20;;;;;;5013005;28;20454;-75
2020/12/14 08:59:16;;;;;;;47.45;4.97;;;12.90;93.10;;;;;;5012877;28;20084;-76
2020/12/14 09:02:08;;;;;;;50.45;5.07;;;12.90;93.20;;;;;;5028638;28;20033;-76
2020/12/14 09:04:36;;;;;;;44.85;4.00;;;13.10;93.30;;;;;;5013710;28;20116;-75
2020/12/14 09:07:04;;;;;;;44.20;4.57;;;13.00;93.30;;;;;;5028625;28;20091;-75
2020/12/14 09:09:33;;;;;;;52.22;4.40;;;12.90;93.20;;;;;;5013680;28;20030;-75
2020/12/14 09:12:01;;;;;;;45.60;4.50;;;12.80;92.80;;;;;;5028407;28;20038;-75
2020/12/14 09:14:33;;;;;;;35.78;4.20;;;13.10;92.80;;;;;;5028274;28;20092;-75
2020/12/14 09:17:02;;;;;;;39.72;3.80;;;12.90;92.70;;;;;;5011839;28;20547;-75
2020/12/14 09:19:30;;;;;;;44.33;3.88;;;12.90;92.70;;;;;;5011730;28;20402;-75
2020/12/14 09:21:56;;;;;;;40.75;3.70;;;13.50;92.80;;;;;;5013293;28;20037;-76
2020/12/14 09:24:26;;;;;;;40.05;3.63;;;13.80;92.60;;;;;;5011622;28;20041;-75
2020/12/14 09:26:54;;;;;;;39.78;3.53;;;14.20;92.40;;;;;;5012186;28;20056;-75
2020/12/14 09:29:20;;;;;;;29.83;3.15;;;14.80;92.30;;;;;;5013672;28;20034;-75
2020/12/14 09:31:53;;;;;;;34.30;3.35;;;15.00;91.70;;;;;;5013242;28;20034;-76
2020/12/14 09:34:20;;;;;;;35.00;3.40;;;15.20;90.80;;;;;;5014883;28;20041;-76
2020/12/14 09:36:50;;;;;;;26.20;3.35;;;15.40;90.30;;;;;;5017031;28;20038;-75
2020/12/14 09:39:17;;;;;;;33.47;3.05;;;15.60;89.60;;;;;;5016198;28;20057;-76
2020/12/14 09:41:43;;;;;;;22.98;3.63;;;15.50;89.00;;;;;;5032175;28;20107;-76
2020/12/14 09:44:09;;;;;;;32.40;3.40;;;15.50;88.70;;;;;;5032477;28;20073;-75
2020/12/14 09:46:35;;;;;;;24.48;3.55;;;15.40;89.40;;;;;;5032218;28;20073;-75
2020/12/14 09:49:01;;;;;;;27.30;3.60;;;15.40;89.90;;;;;;5017032;28;20054;-75
2020/12/14 09:51:28;;;;;;;30.60;3.72;;;15.40;90.20;;;;;;5015607;28;20034;-75
2020/12/14 09:53:55;;;;;;;22.35;3.45;;;15.50;90.40;;;;;;5032502;28;20034;-75
2020/12/14 09:56:21;;;;;;;26.48;3.70;;;15.50;90.30;;;;;;5032493;28;20034;-75
2020/12/14 09:58:47;;;;;;;25.25;3.78;;;15.40;90.40;;;;;;5016703;28;20037;-75
2020/12/14 10:01:13;;;;;;;25.33;3.70;;;15.60;90.60;;;;;;5032507;28;20045;-75
2020/12/14 10:03:40;;;;;;;24.27;4.30;;;15.40;90.50;;;;;;5032080;28;20125;-75
2020/12/14 10:06:08;;;;;;;31.58;4.70;;;15.70;90.50;;;;;;5016699;28;20490;-75
2020/12/14 10:08:34;;;;;;;23.20;3.95;;;15.60;90.60;;;;;;5032050;28;20041;-75
2020/12/14 10:11:00;;;;;;;30.10;5.65;;;15.50;90.70;;;;;;5016646;28;20041;-75
2020/12/14 10:13:26;;;;;;;26.33;4.72;;;15.50;90.80;;;;;;5031976;28;20505;-75
2020/12/14 10:15:52;;;;;;;30.08;4.30;;;15.30;90.80;;;;;;5016501;28;20033;-76
2020/12/14 10:18:19;;;;;;;33.55;5.10;;;15.30;90.90;;;;;;5016666;28;20088;-76
2020/12/14 10:20:45;;;;;;;30.52;4.80;;;15.10;91.00;;;;;;5016646;28;20030;-76
2020/12/14 10:23:11;;;;;;;28.50;4.70;;;15.00;91.10;;;;;;5016858;28;20041;-75
2020/12/14 10:25:37;;;;;;;33.58;3.92;;;14.80;91.20;;;;;;5016657;28;20029;-75
2020/12/14 10:28:04;;;;;;;28.30;5.57;;;15.00;91.60;;;;;;5015521;28;20038;-76
2020/12/14 10:30:31;;;;;;;29.08;3.78;;;15.00;91.80;;;;;;5016151;28;20473;-76
2020/12/14 10:32:57;;;;;;;27.63;3.63;;;15.10;92.30;;;;;;5015345;28;20033;-75
2020/12/14 10:35:23;;;;;;;19.48;4.25;;;14.60;92.00;;;;;;5014377;28;20036;-75
2020/12/14 10:37:49;;;;;;;20.83;3.67;;;15.40;92.60;;;;;;5015357;28;20635;-75
2020/12/14 10:40:15;;;;;;;21.92;3.92;;;15.00;92.30;;;;;;5030543;28;20037;-76
2020/12/14 10:42:44;;;;;;;22.13;3.60;;;15.30;92.30;;;;;;5015533;28;20435;-76
2020/12/14 10:45:10;;;;;;;21.40;3.63;;;15.40;92.40;;;;;;5014661;28;20090;-76
2020/12/14 10:47:39;;;;;;;24.73;3.58;;;15.10;92.20;;;;;;5015492;28;20037;-76
2020/12/14 10:50:06;;;;;;;25.92;4.65;;;14.90;92.10;;;;;;5030768;28;20054;-76
2020/12/14 10:52:32;;;;;;;20.63;3.22;;;14.90;92.10;;;;;;5015809;28;20060;-77
2020/12/14 10:54:58;;;;;;;21.67;3.42;;;15.20;92.10;;;;;;5026956;28;20492;-76
2020/12/14 10:57:24;;;;;;;20.23;3.00;;;15.00;92.40;;;;;;5007969;28;20130;-77
2020/12/14 10:59:50;;;;;;;13.38;2.10;;;15.00;92.30;;;;;;5014706;28;20116;-75
2020/12/14 11:02:16;;;;;;;19.48;2.47;;;15.00;92.30;;;;;;5010564;28;20036;-76
2020/12/14 11:04:42;;;;;;;14.30;1.80;;;14.80;92.20;;;;;;5011193;28;20487;-75
2020/12/14 11:07:08;;;;;;;14.07;1.65;;;14.90;92.30;;;;;;5015286;28;20042;-75
2020/12/14 11:09:35;;;;;;;16.67;1.77;;;14.60;92.30;;;;;;5015320;28;20044;-75
2020/12/14 11:12:07;;;;;;;14.98;1.67;;;14.80;92.30;;;;;;5015750;28;20026;-75
2020/12/14 11:14:34;;;;;;;16.17;1.67;;;14.70;92.20;;;;;;5015369;28;20037;-75
2020/12/14 11:17:02;;;;;;;15.70;1.70;;;14.50;92.10;;;;;;5015382;28;20092;-76
2020/12/14 11:19:28;;;;;;;14.75;1.40;;;14.80;92.20;;;;;;5030256;28;20042;-76
2020/12/14 11:21:55;;;;;;;16.52;1.58;;;14.70;92.10;;;;;;5015506;28;20036;-75
2020/12/14 11:24:22;;;;;;;12.52;2.58;;;14.30;91.90;;;;;;5030378;28;20193;-76
2020/12/14 11:26:49;;;;;;;11.50;1.70;;;14.70;92.10;;;;;;5014977;28;20045;-76
2020/12/14 11:29:15;;;;;;;10.65;1.67;;;14.90;92.30;;;;;;5030468;28;20030;-76
2020/12/14 11:31:42;;;;;;;15.80;2.05;;;15.10;92.20;;;;;;5030190;28;20045;-76
2020/12/14 11:34:08;;;;;;;13.45;1.65;;;15.30;92.20;;;;;;5015107;28;20482;-77
2020/12/14 11:36:34;;;;;;;12.35;1.60;;;15.10;91.90;;;;;;5014894;28;20030;-76
2020/12/14 11:39:00;;;;;;;13.63;1.80;;;15.10;91.90;;;;;;5014649;28;20042;-75
2020/12/14 11:41:27;;;;;;;13.13;1.92;;;15.10;91.80;;;;;;5030351;28;20069;-76
2020/12/14 11:43:53;;;;;;;11.23;2.03;;;15.50;92.10;;;;;;5029662;28;20037;-76
2020/12/14 11:46:20;;;;;;;13.23;1.83;;;15.80;92.10;;;;;;5014037;28;20100;-76
2020/12/14 11:48:46;;;;;;;12.80;1.92;;;15.80;91.60;;;;;;5002116;28;20054;-76
2020/12/14 11:51:12;;;;;;;13.45;1.42;;;16.10;91.50;;;;;;4994500;28;20030;-76
2020/12/14 11:53:37;;;;;;;14.75;1.95;;;15.80;91.10;;;;;;4995063;28;20065;-76
2020/12/14 11:56:03;;;;;;;14.65;2.72;;;15.60;90.80;;;;;;5012872;28;20084;-75
2020/12/14 11:58:29;;;;;;;12.75;3.40;;;15.70;90.90;;;;;;5014236;28;20042;-75
2020/12/14 12:00:55;;;;;;;12.38;2.47;;;15.70;90.90;;;;;;5014506;28;20033;-75
2020/12/14 12:03:21;;;;;;;14.70;2.03;;;15.60;90.90;;;;;;5014521;28;20064;-74
2020/12/14 12:05:47;;;;;;;12.60;2.28;;;15.70;90.90;;;;;;5012920;28;20041;-72
2020/12/14 12:08:13;;;;;;;9.93;1.90;;;15.40;90.90;;;;;;5013243;28;20128;-73
2020/12/14 12:10:39;;;;;;;13.27;1.80;;;15.50;91.00;;;;;;5012716;28;20026;-73
2020/12/14 12:13:05;;;;;;;13.30;1.90;;;15.60;91.10;;;;;;5012605;28;20041;-73
2020/12/14 12:15:31;;;;;;;12.13;2.47;;;15.60;91.10;;;;;;5012655;28;20038;-73
2020/12/14 12:17:57;;;;;;;16.35;3.55;;;15.50;91.20;;;;;;5012995;28;20059;-75
2020/12/14 12:20:23;;;;;;;9.73;1.70;;;15.40;91.10;;;;;;5013636;28;20025;-75
2020/12/14 12:22:49;;;;;;;14.00;3.15;;;15.50;91.10;;;;;;5014073;28;20034;-74
2020/12/14 12:25:15;;;;;;;14.82;1.77;;;15.20;91.20;;;;;;5014041;28;20116;-74
2020/12/14 12:27:41;;;;;;;11.95;1.60;;;15.20;91.30;;;;;;5029474;28;20173;-74
2020/12/14 12:30:07;;;;;;;9.30;1.83;;;15.10;91.40;;;;;;5029603;28;20492;-74
2020/12/14 12:32:32;;;;;;;13.80;2.10;;;15.00;91.50;;;;;;5012970;28;20038;-74
2020/12/14 12:34:58;;;;;;;11.45;1.30;;;15.00;91.50;;;;;;5014046;28;20121;-74
2020/12/14 12:37:24;;;;;;;9.70;1.73;;;15.00;91.50;;;;;;5014198;28;20128;-74
2020/12/14 12:39:50;;;;;;;12.38;2.00;;;15.00;91.50;;;;;;5013854;28;20037;-74
2020/12/14 12:42:17;;;;;;;10.18;1.80;;;14.80;91.50;;;;;;5014229;28;20377;-74
2020/12/14 12:44:43;;;;;;;12.82;1.90;;;15.10;91.80;;;;;;5014042;28;20097;-74